Time;durP1;ratioP1;P1;durP2;ratioP2;P2;SDS_P1;SDS_P2;PMS_P1;PMS_P2;Temp;Humidity;BMP_temperature;BMP_pressure;BME280_temperature;BME280_humidity;BME280_pressure;Samples;Min_cycle;Max_cycle;Signal;HPM_P1;HPM_P2
2023/06/12 00:01:44;;;;;;;4.32;2.08;;;20.30;63.90;;;;;;4993704;28;20483;-70
2023/06/12 00:04:10;;;;;;;5.18;2.30;;;20.30;64.30;;;;;;4993614;28;20038;-70
2023/06/12 00:06:37;;;;;;;8.35;2.40;;;20.20;64.60;;;;;;4993249;28;20045;-68
2023/06/12 00:09:04;;;;;;;5.32;2.42;;;20.20;64.90;;;;;;4993397;28;20049;-68
2023/06/12 00:11:30;;;;;;;4.25;2.38;;;20.10;65.40;;;;;;4993788;28;20046;-68
2023/06/12 00:13:56;;;;;;;5.10;2.17;;;20.10;65.60;;;;;;4993661;28;20062;-68
2023/06/12 00:16:22;;;;;;;4.10;2.58;;;20.10;66.20;;;;;;4993148;28;20046;-69
2023/06/12 00:18:49;;;;;;;5.20;2.15;;;20.00;66.60;;;;;;4992920;28;20165;-70
2023/06/12 00:21:15;;;;;;;4.20;2.70;;;20.00;67.00;;;;;;4993217;28;20565;-70
2023/06/12 00:23:41;;;;;;;11.77;2.28;;;20.00;67.20;;;;;;4993509;28;20088;-70
2023/06/12 00:26:08;;;;;;;3.33;2.00;;;19.80;67.90;;;;;;4993362;28;20042;-70
2023/06/12 00:28:34;;;;;;;3.90;2.20;;;19.80;68.40;;;;;;4991568;28;20046;-70
2023/06/12 00:31:00;;;;;;;5.07;2.42;;;19.80;69.10;;;;;;4993013;28;20061;-70
2023/06/12 00:33:26;;;;;;;6.82;2.65;;;19.70;69.40;;;;;;4993024;28;20250;-70
2023/06/12 00:35:52;;;;;;;9.13;2.60;;;19.70;69.80;;;;;;4993290;28;20038;-70
2023/06/12 00:38:20;;;;;;;4.63;2.60;;;19.70;70.10;;;;;;4992808;28;20038;-70
2023/06/12 00:40:45;;;;;;;5.30;2.50;;;19.70;70.40;;;;;;4992638;28;20042;-70
2023/06/12 00:43:11;;;;;;;7.28;2.67;;;19.70;70.80;;;;;;4992696;28;20108;-70
2023/06/12 00:45:37;;;;;;;5.80;2.47;;;19.60;71.30;;;;;;4992592;28;20053;-69
2023/06/12 00:48:05;;;;;;;4.82;2.63;;;19.50;72.10;;;;;;4992350;28;20069;-70
2023/06/12 00:50:31;;;;;;;7.75;3.03;;;19.50;73.00;;;;;;4992611;28;20097;-69
2023/06/12 00:52:58;;;;;;;3.28;2.03;;;19.40;73.60;;;;;;4992921;28;20034;-69
2023/06/12 00:55:24;;;;;;;6.72;2.40;;;19.30;74.50;;;;;;4992876;28;20092;-69
2023/06/12 00:57:51;;;;;;;3.60;2.40;;;19.30;75.10;;;;;;4992331;28;20522;-69
2023/06/12 01:00:18;;;;;;;5.22;2.42;;;19.30;75.70;;;;;;4992150;28;20046;-69
2023/06/12 01:03:05;;;;;;;6.72;2.60;;;19.30;75.90;;;;;;4992484;28;20157;-69
2023/06/12 01:05:35;;;;;;;6.05;2.33;;;19.30;76.70;;;;;;4992620;28;20093;-69
2023/06/12 01:08:16;;;;;;;6.07;2.30;;;19.20;77.20;;;;;;4992262;28;20654;-70
2023/06/12 01:10:51;;;;;;;4.15;2.35;;;19.20;77.40;;;;;;4992216;28;20042;-69
2023/06/12 01:13:18;;;;;;;4.18;2.30;;;19.20;78.00;;;;;;4992436;28;20046;-70
2023/06/12 01:15:44;;;;;;;5.50;2.42;;;19.10;79.00;;;;;;4992664;28;20068;-69
2023/06/12 01:18:09;;;;;;;4.00;2.47;;;19.10;79.50;;;;;;4992146;28;20053;-70
2023/06/12 01:20:35;;;;;;;5.63;2.40;;;19.00;79.90;;;;;;4991994;28;20053;-70
2023/06/12 01:23:11;;;;;;;6.75;3.35;;;18.90;80.80;;;;;;4992366;28;20042;-70
2023/06/12 01:26:00;;;;;;;6.18;2.60;;;18.90;81.40;;;;;;4992339;28;20114;-70
2023/06/12 01:28:55;;;;;;;9.95;3.10;;;18.90;82.80;;;;;;4991933;28;20053;-70
2023/06/12 01:31:28;;;;;;;4.65;2.47;;;18.80;83.20;;;;;;4992347;28;20052;-69
2023/06/12 01:34:15;;;;;;;5.70;2.30;;;18.70;83.30;;;;;;4992226;28;20053;-70
2023/06/12 01:36:48;;;;;;;4.22;2.78;;;18.70;83.90;;;;;;4991926;28;20108;-70
2023/06/12 01:39:16;;;;;;;6.55;3.00;;;18.70;84.60;;;;;;4991948;28;20042;-70
2023/06/12 01:41:42;;;;;;;10.27;3.70;;;18.60;85.40;;;;;;4992356;28;20053;-69
2023/06/12 01:44:11;;;;;;;7.50;2.70;;;18.60;85.80;;;;;;4992134;28;20569;-70
2023/06/12 01:46:37;;;;;;;6.50;2.42;;;18.60;86.80;;;;;;4991382;28;20042;-70
2023/06/12 01:49:04;;;;;;;11.85;2.60;;;18.60;86.90;;;;;;4991687;28;20071;-69
2023/06/12 01:51:30;;;;;;;4.97;2.60;;;18.50;87.40;;;;;;4990886;28;20498;-70
2023/06/12 01:53:55;;;;;;;7.47;2.70;;;18.50;88.00;;;;;;4992148;28;20038;-69
2023/06/12 01:56:24;;;;;;;6.50;2.97;;;18.50;88.10;;;;;;4994780;28;20506;-69
2023/06/12 01:58:50;;;;;;;4.60;2.85;;;18.50;88.40;;;;;;4995534;28;20035;-70
2023/06/12 02:01:15;;;;;;;4.55;2.58;;;18.50;88.50;;;;;;4995817;28;20050;-70
2023/06/12 02:03:45;;;;;;;4.95;2.78;;;18.50;88.60;;;;;;4996122;28;20034;-70
2023/06/12 02:06:13;;;;;;;5.38;2.50;;;18.50;89.40;;;;;;4995805;28;20046;-69
2023/06/12 02:08:38;;;;;;;5.43;2.60;;;18.40;89.70;;;;;;4995634;28;20079;-69
2023/06/12 02:11:04;;;;;;;7.30;2.80;;;18.40;90.10;;;;;;4995680;28;20038;-69
2023/06/12 02:13:30;;;;;;;5.47;2.67;;;18.40;90.10;;;;;;4994644;28;20030;-70
2023/06/12 02:15:55;;;;;;;9.00;2.80;;;18.30;90.20;;;;;;4995674;28;20034;-70
2023/06/12 02:18:21;;;;;;;4.00;2.90;;;18.40;90.40;;;;;;4995472;28;20034;-70
2023/06/12 02:20:49;;;;;;;8.15;2.83;;;18.30;90.50;;;;;;4995256;28;20121;-70
2023/06/12 02:23:14;;;;;;;4.57;2.88;;;18.30;91.10;;;;;;4995590;28;20080;-70
2023/06/12 02:25:40;;;;;;;6.85;2.47;;;18.20;91.00;;;;;;4995608;28;20065;-70
2023/06/12 02:28:07;;;;;;;4.68;2.63;;;18.10;91.20;;;;;;4994901;28;20038;-70
2023/06/12 02:30:33;;;;;;;6.70;2.85;;;18.10;91.50;;;;;;4995012;28;20046;-69
2023/06/12 02:32:58;;;;;;;8.18;3.42;;;18.10;91.70;;;;;;4994068;28;20042;-69
2023/06/12 02:35:24;;;;;;;4.50;2.50;;;18.00;92.00;;;;;;4995505;28;20045;-69
2023/06/12 02:37:49;;;;;;;5.45;2.53;;;17.90;92.60;;;;;;4995001;28;20073;-70
2023/06/12 02:40:15;;;;;;;7.05;2.90;;;17.90;92.50;;;;;;4994760;28;20046;-69
2023/06/12 02:42:40;;;;;;;6.05;2.70;;;17.90;92.70;;;;;;4995088;28;20070;-69
2023/06/12 02:45:06;;;;;;;5.38;2.67;;;17.90;92.90;;;;;;4995299;28;20038;-69
2023/06/12 02:47:32;;;;;;;5.85;2.80;;;17.80;93.20;;;;;;4994914;28;20053;-70
2023/06/12 02:49:58;;;;;;;6.22;2.85;;;17.80;93.50;;;;;;4994708;28;20046;-69
2023/06/12 02:52:23;;;;;;;4.90;2.95;;;17.70;93.80;;;;;;4995123;28;20038;-69
2023/06/12 02:54:49;;;;;;;5.50;3.00;;;17.70;94.10;;;;;;4995068;28;20413;-69
2023/06/12 02:57:15;;;;;;;5.50;2.70;;;17.60;94.30;;;;;;4994404;28;20041;-69
2023/06/12 02:59:41;;;;;;;6.18;2.85;;;17.60;94.50;;;;;;4994370;28;20077;-69
2023/06/12 03:02:07;;;;;;;4.88;2.60;;;17.60;94.60;;;;;;4994741;28;20529;-69
2023/06/12 03:04:35;;;;;;;4.97;3.10;;;17.60;94.80;;;;;;4994881;28;20162;-69
2023/06/12 03:07:06;;;;;;;10.77;3.15;;;17.50;95.10;;;;;;4993760;28;20042;-69
2023/06/12 03:09:34;;;;;;;13.52;3.65;;;17.40;95.60;;;;;;4994264;28;20120;-69
2023/06/12 03:12:00;;;;;;;5.03;2.95;;;17.30;96.00;;;;;;4994549;28;20037;-69
2023/06/12 03:14:26;;;;;;;5.47;2.90;;;17.30;96.50;;;;;;4994619;28;20514;-70
2023/06/12 03:16:52;;;;;;;10.25;2.85;;;17.20;96.80;;;;;;4994359;28;20038;-70
2023/06/12 03:19:17;;;;;;;6.72;3.00;;;17.10;97.10;;;;;;4994083;28;20097;-69
2023/06/12 03:21:43;;;;;;;9.02;2.78;;;17.10;97.50;;;;;;4994488;28;20053;-69
2023/06/12 03:24:09;;;;;;;6.18;2.80;;;17.10;97.90;;;;;;4994461;28;20038;-69
2023/06/12 03:26:35;;;;;;;7.30;3.67;;;17.00;98.10;;;;;;4993983;28;20034;-69
2023/06/12 03:29:01;;;;;;;7.53;3.50;;;17.00;98.80;;;;;;4993750;28;20093;-69
2023/06/12 03:31:28;;;;;;;7.63;3.38;;;16.90;98.90;;;;;;4994454;28;20042;-69
2023/06/12 03:33:54;;;;;;;6.75;2.67;;;16.90;99.30;;;;;;4994355;28;20053;-70
2023/06/12 03:36:21;;;;;;;7.18;3.58;;;16.80;99.60;;;;;;4993919;28;20038;-69
2023/06/12 03:38:47;;;;;;;8.77;3.33;;;16.80;99.90;;;;;;4993742;28;20039;-69
2023/06/12 03:41:12;;;;;;;6.15;3.10;;;16.80;99.90;;;;;;4993967;28;20045;-69
2023/06/12 03:43:38;;;;;;;9.82;3.20;;;16.80;99.90;;;;;;4994255;28;20422;-70
2023/06/12 03:46:04;;;;;;;6.13;4.00;;;16.70;99.90;;;;;;4994022;28;20050;-69
2023/06/12 03:48:30;;;;;;;6.55;3.38;;;16.70;99.90;;;;;;4993699;28;20038;-69
2023/06/12 03:50:56;;;;;;;6.60;3.40;;;16.70;99.90;;;;;;4993630;28;20679;-69
2023/06/12 03:53:21;;;;;;;7.70;3.08;;;16.70;99.90;;;;;;4993872;28;20042;-69
2023/06/12 03:55:47;;;;;;;6.03;3.55;;;16.70;99.90;;;;;;4993825;28;20553;-69
2023/06/12 03:58:16;;;;;;;7.63;3.40;;;16.60;99.90;;;;;;4993430;28;20043;-69
2023/06/12 04:00:43;;;;;;;6.22;4.13;;;16.60;99.90;;;;;;4993444;28;20053;-69
2023/06/12 04:03:09;;;;;;;6.55;3.60;;;16.60;99.90;;;;;;4993724;28;20117;-69
2023/06/12 04:05:35;;;;;;;6.88;3.63;;;16.60;99.90;;;;;;4993766;28;20498;-69
2023/06/12 04:08:01;;;;;;;6.97;3.40;;;16.60;99.90;;;;;;4993189;28;20050;-70
2023/06/12 04:10:26;;;;;;;7.43;4.38;;;16.60;99.90;;;;;;4993141;28;20461;-70
2023/06/12 04:12:55;;;;;;;6.80;3.67;;;16.60;99.90;;;;;;4992204;28;20054;-69
2023/06/12 04:15:21;;;;;;;10.35;3.40;;;16.50;99.90;;;;;;4992204;28;20049;-70
2023/06/12 04:17:47;;;;;;;5.63;3.38;;;16.60;99.90;;;;;;4993054;28;20042;-70
2023/06/12 04:20:12;;;;;;;8.07;3.55;;;16.60;99.90;;;;;;4991916;28;20636;-69
2023/06/12 04:22:40;;;;;;;7.78;3.50;;;16.70;99.90;;;;;;4991997;28;20046;-70
2023/06/12 04:25:08;;;;;;;5.78;3.60;;;16.70;99.90;;;;;;4993298;28;20074;-70
2023/06/12 04:27:34;;;;;;;6.40;3.60;;;16.70;99.90;;;;;;4993068;28;20449;-70
2023/06/12 04:29:59;;;;;;;7.25;3.85;;;16.70;99.90;;;;;;4992609;28;20073;-69
2023/06/12 04:32:25;;;;;;;6.40;3.55;;;16.80;99.90;;;;;;4993179;28;20034;-69
2023/06/12 04:34:52;;;;;;;8.90;3.78;;;16.90;99.90;;;;;;4993199;28;20042;-69
2023/06/12 04:37:18;;;;;;;5.93;3.50;;;16.90;99.90;;;;;;4992662;28;20046;-70
2023/06/12 04:39:45;;;;;;;8.02;3.47;;;17.00;99.90;;;;;;4992715;28;20050;-69
2023/06/12 04:42:16;;;;;;;7.60;3.70;;;17.10;99.90;;;;;;4993134;28;20113;-69
2023/06/12 04:44:43;;;;;;;8.43;3.30;;;17.20;99.90;;;;;;4993086;28;20109;-70
2023/06/12 04:47:10;;;;;;;8.07;3.55;;;17.30;99.90;;;;;;4991386;28;20234;-70
2023/06/12 04:49:37;;;;;;;8.73;3.70;;;17.50;99.90;;;;;;4992384;28;20164;-70
2023/06/12 04:52:06;;;;;;;6.68;4.40;;;17.60;99.90;;;;;;4992768;28;20461;-70
2023/06/12 04:54:35;;;;;;;6.43;4.60;;;17.80;99.90;;;;;;4992802;28;20042;-70
2023/06/12 04:57:03;;;;;;;8.80;3.97;;;17.90;99.90;;;;;;4991187;28;20498;-69
2023/06/12 04:59:30;;;;;;;7.80;4.22;;;18.10;99.90;;;;;;4992231;28;20053;-70
2023/06/12 05:01:57;;;;;;;7.35;3.67;;;18.30;99.90;;;;;;4992653;28;20053;-70
2023/06/12 05:04:23;;;;;;;9.32;4.45;;;18.50;99.90;;;;;;4992548;28;20662;-70
2023/06/12 05:06:49;;;;;;;9.18;3.83;;;18.50;99.90;;;;;;4992507;28;20125;-70
2023/06/12 05:09:15;;;;;;;6.18;3.60;;;18.70;99.90;;;;;;4990863;28;20050;-70
2023/06/12 05:11:40;;;;;;;7.20;3.67;;;18.90;99.90;;;;;;4992557;28;20042;-70
2023/06/12 05:14:06;;;;;;;6.90;4.60;;;19.10;99.70;;;;;;4992460;28;20042;-70
2023/06/12 05:16:32;;;;;;;8.82;4.00;;;19.20;99.50;;;;;;4990865;28;20053;-70
2023/06/12 05:18:57;;;;;;;6.40;3.28;;;19.40;99.10;;;;;;4991832;28;20054;-70
2023/06/12 05:21:23;;;;;;;7.25;3.65;;;19.70;98.70;;;;;;4975108;28;20046;-69
2023/06/12 05:23:48;;;;;;;6.72;3.78;;;20.00;98.70;;;;;;4992564;28;20120;-69
2023/06/12 05:26:14;;;;;;;10.50;4.25;;;20.10;98.10;;;;;;4992075;28;20057;-69
2023/06/12 05:28:39;;;;;;;8.90;4.22;;;20.20;97.70;;;;;;4992011;28;20061;-70
2023/06/12 05:31:05;;;;;;;7.93;3.85;;;20.30;96.80;;;;;;4991756;28;20049;-69
2023/06/12 05:33:32;;;;;;;11.43;4.38;;;20.40;96.40;;;;;;4990988;28;20088;-69
2023/06/12 05:35:58;;;;;;;5.10;3.63;;;20.60;96.10;;;;;;4992162;28;20042;-69
2023/06/12 05:38:25;;;;;;;9.23;4.50;;;20.90;95.60;;;;;;4991858;28;20166;-69
2023/06/12 05:40:51;;;;;;;11.25;4.00;;;21.10;94.90;;;;;;4991851;28;20074;-69
2023/06/12 05:43:17;;;;;;;7.35;3.75;;;21.00;94.40;;;;;;4992161;28;20046;-69
2023/06/12 05:45:42;;;;;;;12.02;4.00;;;21.00;94.60;;;;;;4992248;28;20042;-69
2023/06/12 05:48:08;;;;;;;10.15;4.22;;;21.20;94.30;;;;;;4991720;28;20030;-69
2023/06/12 05:50:33;;;;;;;13.02;3.95;;;21.20;94.10;;;;;;4991844;28;20491;-69
2023/06/12 05:52:59;;;;;;;6.68;3.65;;;21.20;93.70;;;;;;4991990;28;20422;-72
2023/06/12 05:55:24;;;;;;;12.60;5.28;;;21.40;93.50;;;;;;4992084;28;20086;-70
2023/06/12 05:57:51;;;;;;;9.00;4.40;;;21.30;93.50;;;;;;4991782;28;20532;-70
2023/06/12 06:00:17;;;;;;;6.85;3.80;;;21.20;93.50;;;;;;4991483;28;20065;-69
2023/06/12 06:02:43;;;;;;;8.65;4.32;;;21.40;93.40;;;;;;4991895;28;20043;-70
2023/06/12 06:05:09;;;;;;;9.75;3.70;;;21.40;93.50;;;;;;4991986;28;20074;-71
2023/06/12 06:07:36;;;;;;;6.03;4.13;;;21.60;93.30;;;;;;4991771;28;20049;-71
2023/06/12 06:10:04;;;;;;;10.82;4.63;;;21.60;93.00;;;;;;4991543;28;20061;-71
2023/06/12 06:12:29;;;;;;;8.43;3.72;;;21.70;92.80;;;;;;4992049;28;20043;-70
2023/06/12 06:14:55;;;;;;;7.90;4.47;;;21.90;92.60;;;;;;4990770;28;20449;-71
2023/06/12 06:17:20;;;;;;;8.60;4.50;;;22.00;92.60;;;;;;4991446;28;20162;-71
2023/06/12 06:19:46;;;;;;;10.18;4.82;;;22.10;92.30;;;;;;4990059;28;20562;-71
2023/06/12 06:22:12;;;;;;;8.00;4.55;;;22.40;92.00;;;;;;4991777;28;20042;-71
2023/06/12 06:24:37;;;;;;;9.63;4.40;;;22.50;91.60;;;;;;4991803;28;20073;-71
2023/06/12 06:27:03;;;;;;;7.97;4.00;;;22.50;91.10;;;;;;4991536;28;20125;-71
2023/06/12 06:29:29;;;;;;;13.13;4.43;;;22.70;91.30;;;;;;4989992;28;20050;-71
2023/06/12 06:31:55;;;;;;;9.50;4.78;;;22.90;90.70;;;;;;4991648;28;20053;-71
2023/06/12 06:34:20;;;;;;;9.02;4.43;;;23.00;90.70;;;;;;4991900;28;20409;-71
2023/06/12 06:36:46;;;;;;;8.55;4.15;;;23.10;90.40;;;;;;4991463;28;20128;-71
2023/06/12 06:39:11;;;;;;;11.10;4.45;;;23.20;89.30;;;;;;4991161;28;20046;-71
2023/06/12 06:41:37;;;;;;;9.55;4.43;;;23.30;89.00;;;;;;4991793;28;20038;-69
2023/06/12 06:44:03;;;;;;;9.68;3.92;;;23.40;87.90;;;;;;4995188;28;20387;-71
2023/06/12 06:46:29;;;;;;;7.72;4.18;;;23.60;87.30;;;;;;4994460;28;20129;-71
2023/06/12 06:48:54;;;;;;;8.35;4.25;;;23.50;85.60;;;;;;4994841;28;20073;-71
2023/06/12 06:51:20;;;;;;;7.32;4.30;;;23.60;85.00;;;;;;4995216;28;20494;-71
2023/06/12 06:53:46;;;;;;;10.07;4.35;;;23.70;85.40;;;;;;4995126;28;20065;-71
2023/06/12 06:56:11;;;;;;;9.43;4.53;;;23.70;84.20;;;;;;4994683;28;20097;-71
2023/06/12 06:58:37;;;;;;;9.00;4.93;;;23.70;83.60;;;;;;4993457;28;20049;-71
2023/06/12 07:01:03;;;;;;;8.55;5.07;;;23.70;82.90;;;;;;4994547;28;20047;-71
2023/06/12 07:03:28;;;;;;;8.85;4.72;;;23.80;82.60;;;;;;4993731;28;20113;-71
2023/06/12 07:05:54;;;;;;;8.48;4.70;;;24.00;82.00;;;;;;4990354;28;20097;-69
2023/06/12 07:08:20;;;;;;;5.88;3.97;;;24.10;80.50;;;;;;4994184;28;20034;-70
2023/06/12 07:10:45;;;;;;;9.75;4.93;;;24.40;80.30;;;;;;4994158;28;20089;-71
2023/06/12 07:13:12;;;;;;;8.00;4.05;;;24.60;79.80;;;;;;4994508;28;20038;-71
2023/06/12 07:15:37;;;;;;;9.40;4.60;;;24.80;78.30;;;;;;4986298;28;20396;-71
2023/06/12 07:18:03;;;;;;;10.05;4.53;;;24.70;77.50;;;;;;4980584;28;20046;-71
2023/06/12 07:20:29;;;;;;;12.13;4.93;;;24.70;77.90;;;;;;4974745;28;20043;-71
2023/06/12 07:22:54;;;;;;;9.23;4.13;;;24.90;76.80;;;;;;4975077;28;20550;-71
2023/06/12 07:25:20;;;;;;;7.93;4.57;;;25.10;77.20;;;;;;4974979;28;20058;-71
2023/06/12 07:27:45;;;;;;;9.20;4.50;;;25.20;76.70;;;;;;4974696;28;20042;-71
2023/06/12 07:30:11;;;;;;;8.82;4.55;;;25.30;76.90;;;;;;4974317;28;20498;-71
2023/06/12 07:32:38;;;;;;;7.90;4.90;;;25.30;75.50;;;;;;4975095;28;20051;-71
2023/06/12 07:35:05;;;;;;;7.70;5.07;;;25.20;74.50;;;;;;4974841;28;20525;-71
2023/06/12 07:37:35;;;;;;;9.20;4.60;;;25.40;73.70;;;;;;4973214;28;20045;-71
2023/06/12 07:40:10;;;;;;;14.90;5.13;;;25.60;73.80;;;;;;4974212;28;20118;-71
2023/06/12 07:42:36;;;;;;;8.80;4.68;;;25.60;72.20;;;;;;4974704;28;20046;-71
2023/06/12 07:45:02;;;;;;;8.70;4.40;;;25.60;72.40;;;;;;4973318;28;20047;-75
2023/06/12 07:47:28;;;;;;;10.43;4.60;;;25.70;73.10;;;;;;4972998;28;20498;-71
2023/06/12 07:49:53;;;;;;;8.48;3.97;;;25.60;72.90;;;;;;4973962;28;20102;-71
2023/06/12 07:52:20;;;;;;;7.68;4.47;;;25.80;73.40;;;;;;4973138;28;20101;-71
2023/06/12 07:54:47;;;;;;;8.40;4.68;;;26.10;72.80;;;;;;4973133;28;20110;-69
2023/06/12 07:57:13;;;;;;;6.28;4.57;;;26.30;71.80;;;;;;4973982;28;20085;-70
2023/06/12 07:59:39;;;;;;;6.38;4.65;;;26.60;70.60;;;;;;4974000;28;20042;-70
2023/06/12 08:02:06;;;;;;;6.57;4.13;;;26.60;69.70;;;;;;4974476;28;20043;-70
2023/06/12 08:04:33;;;;;;;8.95;4.43;;;26.70;69.40;;;;;;4974375;28;20046;-70
2023/06/12 08:07:00;;;;;;;8.65;4.32;;;27.00;68.00;;;;;;4973875;28;20090;-70
2023/06/12 08:09:26;;;;;;;8.60;4.40;;;26.90;67.00;;;;;;4972375;28;20046;-70
2023/06/12 08:11:52;;;;;;;7.07;4.88;;;27.10;65.60;;;;;;4974068;28;20065;-70
2023/06/12 08:14:17;;;;;;;9.18;4.40;;;27.20;64.80;;;;;;4974040;28;20069;-70
2023/06/12 08:16:45;;;;;;;7.20;4.30;;;27.00;64.60;;;;;;4973864;28;20042;-70
2023/06/12 08:19:12;;;;;;;8.85;4.53;;;27.20;64.00;;;;;;4973638;28;20043;-70
2023/06/12 08:21:38;;;;;;;8.73;5.38;;;27.20;64.40;;;;;;4974009;28;20043;-70
2023/06/12 08:24:06;;;;;;;9.50;4.65;;;27.40;63.10;;;;;;4973850;28;20043;-69
2023/06/12 08:26:32;;;;;;;8.77;4.50;;;27.50;62.00;;;;;;4973465;28;20034;-70
2023/06/12 08:28:57;;;;;;;8.32;4.57;;;27.80;62.00;;;;;;4973671;28;20089;-70
2023/06/12 08:31:23;;;;;;;14.68;5.93;;;27.90;64.30;;;;;;4973908;28;20038;-72
2023/06/12 08:33:49;;;;;;;6.93;4.70;;;27.80;62.20;;;;;;4973679;28;20042;-69
2023/06/12 08:36:14;;;;;;;7.28;4.53;;;28.00;61.70;;;;;;4973376;28;20408;-69
2023/06/12 08:38:40;;;;;;;8.50;4.90;;;28.00;59.90;;;;;;4973379;28;20114;-72
2023/06/12 08:41:06;;;;;;;8.15;4.53;;;27.80;61.00;;;;;;4973223;28;20101;-70
2023/06/12 08:43:33;;;;;;;8.45;4.68;;;28.10;60.10;;;;;;4973785;28;20035;-69
2023/06/12 08:46:03;;;;;;;10.95;5.15;;;28.30;61.00;;;;;;4973524;28;20066;-70
2023/06/12 08:48:29;;;;;;;8.75;5.10;;;28.50;61.20;;;;;;4973213;28;20042;-69
2023/06/12 08:50:55;;;;;;;9.90;5.10;;;28.20;58.80;;;;;;4973098;28;20053;-69
2023/06/12 08:53:22;;;;;;;8.50;4.80;;;28.30;58.20;;;;;;4973287;28;20401;-69
2023/06/12 08:55:50;;;;;;;9.85;5.32;;;28.50;58.50;;;;;;4973324;28;20050;-69
2023/06/12 08:58:15;;;;;;;10.77;4.88;;;28.40;57.60;;;;;;4971679;28;20122;-69
2023/06/12 09:00:41;;;;;;;7.97;4.40;;;28.30;57.30;;;;;;4972797;28;20125;-69
2023/06/12 09:03:07;;;;;;;6.13;4.32;;;28.40;58.40;;;;;;4971975;28;20057;-69
2023/06/12 09:05:37;;;;;;;8.77;4.82;;;28.20;58.30;;;;;;4972639;28;20122;-69
2023/06/12 09:08:04;;;;;;;9.38;4.90;;;28.10;57.90;;;;;;4971768;28;20047;-69
2023/06/12 09:10:33;;;;;;;8.23;4.70;;;28.10;58.10;;;;;;4972949;28;20046;-69
2023/06/12 09:13:01;;;;;;;7.97;5.15;;;28.20;57.50;;;;;;4973149;28;20038;-69
2023/06/12 09:15:27;;;;;;;12.30;6.20;;;28.30;58.30;;;;;;4973109;28;20038;-69
2023/06/12 09:17:54;;;;;;;8.52;4.70;;;27.90;58.30;;;;;;4971432;28;20512;-69
2023/06/12 09:20:26;;;;;;;9.23;5.22;;;28.10;57.90;;;;;;4971355;28;20043;-70
2023/06/12 09:22:52;;;;;;;8.60;5.57;;;28.20;57.90;;;;;;4971858;28;20053;-70
2023/06/12 09:25:21;;;;;;;6.88;4.75;;;28.10;56.40;;;;;;4972999;28;20034;-70
2023/06/12 09:27:47;;;;;;;8.85;5.47;;;28.20;55.90;;;;;;4972711;28;20031;-70
2023/06/12 09:30:14;;;;;;;12.10;5.05;;;28.00;55.00;;;;;;4971022;28;20053;-69
2023/06/12 09:32:43;;;;;;;8.98;5.13;;;28.10;53.20;;;;;;4971766;28;20078;-70
2023/06/12 09:35:10;;;;;;;9.45;4.70;;;28.10;53.40;;;;;;4972705;28;20043;-70
2023/06/12 09:37:37;;;;;;;7.80;4.75;;;27.90;53.50;;;;;;4972687;28;20058;-70
2023/06/12 09:40:14;;;;;;;6.38;4.43;;;28.10;53.20;;;;;;4972293;28;20038;-69
2023/06/12 09:42:41;;;;;;;9.65;5.07;;;28.10;53.10;;;;;;4972893;28;20046;-69
2023/06/12 09:45:15;;;;;;;6.55;4.32;;;28.00;53.50;;;;;;4972743;28;20045;-69
2023/06/12 09:47:46;;;;;;;9.18;4.68;;;28.20;55.00;;;;;;4972396;28;20085;-69
2023/06/12 09:50:13;;;;;;;6.90;5.03;;;28.20;52.00;;;;;;4972338;28;20122;-69
2023/06/12 09:52:46;;;;;;;10.68;4.90;;;28.20;52.80;;;;;;4973031;28;20122;-69
2023/06/12 09:55:16;;;;;;;5.63;4.22;;;28.20;52.10;;;;;;4972656;28;20047;-69
2023/06/12 09:57:46;;;;;;;7.15;4.70;;;28.00;50.30;;;;;;4972436;28;20163;-69
2023/06/12 10:00:15;;;;;;;7.30;4.90;;;28.30;50.80;;;;;;4972004;28;20050;-69
2023/06/12 10:02:46;;;;;;;6.88;4.90;;;28.30;50.70;;;;;;4972584;28;20042;-69
2023/06/12 10:05:23;;;;;;;6.65;4.65;;;28.50;50.50;;;;;;4972648;28;20046;-69
2023/06/12 10:07:53;;;;;;;6.97;4.38;;;28.40;50.60;;;;;;4972193;28;20573;-69
2023/06/12 10:10:20;;;;;;;13.00;5.00;;;28.30;50.10;;;;;;4972014;28;20462;-69
2023/06/12 10:12:46;;;;;;;7.38;4.63;;;28.30;49.40;;;;;;4972420;28;20083;-69
2023/06/12 10:15:12;;;;;;;9.25;5.25;;;28.40;50.30;;;;;;4972641;28;20074;-69
2023/06/12 10:17:40;;;;;;;6.53;4.82;;;28.50;49.90;;;;;;4975596;28;20046;-68
2023/06/12 10:20:08;;;;;;;9.88;5.80;;;28.40;49.20;;;;;;4975726;28;20043;-68
2023/06/12 10:22:34;;;;;;;10.38;5.28;;;28.30;49.40;;;;;;4976147;28;20479;-69
2023/06/12 10:25:02;;;;;;;7.70;5.10;;;28.20;49.60;;;;;;4976154;28;20038;-68
2023/06/12 10:27:29;;;;;;;8.32;5.50;;;28.20;50.10;;;;;;4985220;28;20046;-68
2023/06/12 10:29:57;;;;;;;6.90;4.80;;;28.20;49.80;;;;;;4986328;28;20175;-68
2023/06/12 10:32:23;;;;;;;9.95;6.22;;;28.40;49.10;;;;;;4992250;28;20054;-68
2023/06/12 10:34:53;;;;;;;7.85;5.40;;;28.30;49.00;;;;;;4995405;28;20034;-68
2023/06/12 10:37:25;;;;;;;6.60;4.95;;;28.30;48.90;;;;;;4995141;28;20101;-69
2023/06/12 10:40:19;;;;;;;8.35;5.10;;;28.50;48.80;;;;;;4994626;28;20499;-68
2023/06/12 10:43:00;;;;;;;6.75;4.90;;;28.50;48.60;;;;;;4995242;28;20034;-68
2023/06/12 10:45:35;;;;;;;5.73;4.67;;;28.50;48.90;;;;;;4995235;28;20495;-68
2023/06/12 10:48:06;;;;;;;7.43;5.30;;;28.50;48.30;;;;;;4993403;28;20128;-68
2023/06/12 10:50:45;;;;;;;8.57;5.50;;;28.50;48.00;;;;;;4994686;28;20050;-68
2023/06/12 10:53:20;;;;;;;9.90;5.53;;;28.50;47.70;;;;;;4995198;28;20049;-68
2023/06/12 10:55:46;;;;;;;10.43;5.28;;;28.60;48.30;;;;;;4994923;28;20404;-68
2023/06/12 10:58:14;;;;;;;8.50;5.00;;;28.60;47.80;;;;;;4986023;28;20034;-64
2023/06/12 11:00:45;;;;;;;7.47;4.80;;;29.00;47.50;;;;;;4994201;28;20081;-64
2023/06/12 11:03:18;;;;;;;8.00;4.95;;;29.20;46.60;;;;;;4993722;28;20056;-64
2023/06/12 11:06:00;;;;;;;7.43;4.97;;;29.40;46.80;;;;;;4994830;28;20042;-65
2023/06/12 11:08:30;;;;;;;10.57;5.53;;;29.40;44.10;;;;;;4994496;28;20042;-65
2023/06/12 11:10:56;;;;;;;6.82;4.80;;;29.30;43.30;;;;;;4994275;28;20088;-65
2023/06/12 11:13:23;;;;;;;7.57;5.28;;;29.40;42.70;;;;;;4994518;28;20050;-65
2023/06/12 11:15:51;;;;;;;6.68;4.90;;;29.60;42.70;;;;;;4994798;28;20097;-64
2023/06/12 11:18:17;;;;;;;8.60;5.13;;;29.60;42.80;;;;;;4994243;28;20057;-64
2023/06/12 11:20:42;;;;;;;7.45;5.40;;;29.30;41.90;;;;;;4994077;28;20117;-65
2023/06/12 11:23:08;;;;;;;7.28;5.10;;;29.30;41.60;;;;;;4986343;28;20030;-65
2023/06/12 11:25:41;;;;;;;8.70;5.63;;;29.30;41.20;;;;;;4994372;28;20042;-65
2023/06/12 11:28:07;;;;;;;11.55;6.10;;;29.30;41.20;;;;;;4993529;28;20169;-65
2023/06/12 11:30:32;;;;;;;8.77;5.63;;;29.30;40.30;;;;;;4994220;28;20137;-66
2023/06/12 11:33:06;;;;;;;9.05;5.55;;;29.20;39.40;;;;;;4994199;28;20494;-66
2023/06/12 11:35:32;;;;;;;8.98;5.32;;;29.40;39.10;;;;;;4993024;28;20038;-66
2023/06/12 11:37:57;;;;;;;8.45;5.25;;;29.50;39.80;;;;;;4993848;28;20454;-66
2023/06/12 11:40:26;;;;;;;7.65;5.45;;;29.50;39.60;;;;;;4993573;28;20046;-66
2023/06/12 11:42:54;;;;;;;7.57;5.70;;;29.50;39.50;;;;;;4993725;28;20042;-66
2023/06/12 11:45:20;;;;;;;8.68;5.35;;;29.50;38.80;;;;;;4993263;28;20061;-66
2023/06/12 11:47:46;;;;;;;6.45;5.22;;;29.40;38.80;;;;;;4993784;28;20042;-66
2023/06/12 11:50:15;;;;;;;7.70;5.18;;;29.40;39.00;;;;;;4993585;28;20038;-66
2023/06/12 11:52:42;;;;;;;10.20;6.10;;;29.20;38.80;;;;;;4993308;28;20498;-65
2023/06/12 11:55:10;;;;;;;11.82;5.88;;;29.40;38.30;;;;;;4993659;28;20038;-66
2023/06/12 11:57:36;;;;;;;9.20;5.65;;;29.30;39.30;;;;;;4993046;28;20081;-65
2023/06/12 12:00:12;;;;;;;8.55;5.80;;;29.30;39.30;;;;;;4992871;28;20042;-66
2023/06/12 12:02:42;;;;;;;10.15;6.07;;;29.20;37.70;;;;;;4993630;28;20038;-66
2023/06/12 12:05:11;;;;;;;8.60;5.93;;;28.90;38.30;;;;;;4993627;28;20070;-66
2023/06/12 12:07:38;;;;;;;9.43;5.55;;;28.90;38.10;;;;;;4993510;28;20446;-66
2023/06/12 12:10:09;;;;;;;9.57;5.60;;;28.90;38.20;;;;;;4992614;28;20062;-66
2023/06/12 12:12:50;;;;;;;7.30;5.87;;;28.80;38.50;;;;;;4993531;28;20049;-66
2023/06/12 12:15:17;;;;;;;7.90;4.95;;;28.80;38.60;;;;;;4993543;28;20100;-66
2023/06/12 12:17:44;;;;;;;8.40;5.60;;;29.00;39.10;;;;;;4992942;28;20053;-66
2023/06/12 12:20:30;;;;;;;12.73;5.97;;;29.20;38.90;;;;;;4992928;28;20085;-66
2023/06/12 12:22:59;;;;;;;6.40;5.72;;;29.10;38.00;;;;;;4993377;28;20089;-66
2023/06/12 12:25:30;;;;;;;7.70;5.60;;;29.20;38.60;;;;;;4993336;28;20038;-66
2023/06/12 12:27:59;;;;;;;10.10;6.20;;;29.30;38.40;;;;;;4992992;28;20121;-66
2023/06/12 12:30:26;;;;;;;7.07;5.25;;;29.50;38.10;;;;;;4992767;28;20128;-66
2023/06/12 12:32:53;;;;;;;10.20;6.30;;;29.60;38.50;;;;;;4992982;28;20388;-66
2023/06/12 12:35:19;;;;;;;7.75;5.35;;;29.50;38.00;;;;;;4992853;28;20550;-66
2023/06/12 12:37:46;;;;;;;8.70;6.40;;;29.50;37.80;;;;;;4992866;28;20038;-66
2023/06/12 12:40:13;;;;;;;6.45;5.60;;;29.50;37.70;;;;;;4991637;28;20054;-66
2023/06/12 12:42:47;;;;;;;6.70;6.03;;;29.70;38.40;;;;;;4992659;28;20042;-66
2023/06/12 12:45:18;;;;;;;10.55;6.70;;;29.80;37.50;;;;;;4993171;28;20042;-66
2023/06/12 12:47:47;;;;;;;8.00;5.93;;;29.70;38.60;;;;;;4992668;28;20046;-66